Time;durP1;ratioP1;P1;durP2;ratioP2;P2;SDS_P1;SDS_P2;PMS_P1;PMS_P2;Temp;Humidity;BMP_temperature;BMP_pressure;BME280_temperature;BME280_humidity;BME280_pressure;Samples;Min_cycle;Max_cycle;Signal;HPM_P1;HPM_P2
2021/11/10 00:03:11;;;;;;;29.52;20.63;;;;;;;;;;5402742;23;20052;-76
2021/11/10 00:05:40;;;;;;;30.40;19.45;;;;;;;;;;4943211;28;20033;-76
2021/11/10 00:10:42;;;;;;;27.10;18.30;;;;;;;;;;5468384;23;20036;-77
2021/11/10 00:15:50;;;;;;;32.53;19.15;;;;;;;;;;5550158;23;20037;-79
2021/11/10 00:18:16;;;;;;;27.58;19.13;;;;;;;;;;5485521;23;20076;-76
2021/11/10 00:20:45;;;;;;;28.52;18.98;;;;;;;;;;5041732;23;20058;-76
2021/11/10 00:23:11;;;;;;;31.58;20.35;;;;;;;;;;4901921;29;20037;-76
2021/11/10 00:25:37;;;;;;;29.13;20.67;;;;;;;;;;4904951;29;20055;-76
2021/11/10 00:28:04;;;;;;;28.58;19.10;;;;;;;;;;4878454;29;20034;-76
2021/11/10 00:33:08;;;;;;;26.77;19.70;;;;;;;;;;5388478;23;19907;-77
2021/11/10 00:35:34;;;;;;;26.05;19.10;;;;;;;;;;4923615;29;20097;-76
2021/11/10 00:45:50;;;;;;;28.88;19.55;;;;;;;;;;5308782;23;20067;-75
2021/11/10 00:48:16;;;;;;;26.80;19.35;;;;;;;;;;4942526;28;20031;-75
2021/11/10 00:50:49;;;;;;;28.77;19.08;;;;;;;;;;4917539;29;20043;-75
2021/11/10 00:58:28;;;;;;;29.33;18.95;;;;;;;;;;4320892;27;20047;-75
2021/11/10 01:00:54;;;;;;;33.88;21.30;;;;;;;;;;4904868;29;20037;-75
2021/11/10 01:06:31;;;;;;;32.75;21.77;;;;;;;;;;4900327;29;20064;-75
2021/11/10 01:11:33;;;;;;;31.38;21.27;;;;;;;;;;5046248;23;20124;-76
2021/11/10 01:13:59;;;;;;;35.50;23.38;;;;;;;;;;4937029;28;20028;-76
2021/11/10 01:16:26;;;;;;;35.63;22.85;;;;;;;;;;4922460;29;20028;-76
2021/11/10 01:18:52;;;;;;;30.48;21.73;;;;;;;;;;4932315;29;20092;-75
2021/11/10 01:21:18;;;;;;;32.33;22.60;;;;;;;;;;4939858;29;20021;-75
2021/11/10 01:23:44;;;;;;;36.58;24.45;;;;;;;;;;4925267;28;20040;-75
2021/11/10 01:26:10;;;;;;;39.72;22.85;;;;;;;;;;4941593;28;20020;-76
2021/11/10 01:28:36;;;;;;;37.00;23.83;;;;;;;;;;4931969;29;20088;-76
2021/11/10 01:31:02;;;;;;;33.63;22.67;;;;;;;;;;4923032;29;20036;-75
2021/11/10 01:33:28;;;;;;;36.15;23.60;;;;;;;;;;4934969;29;20033;-75
2021/11/10 01:38:30;;;;;;;36.85;23.23;;;;;;;;;;5124057;23;20068;-76
2021/11/10 01:40:56;;;;;;;33.72;23.55;;;;;;;;;;4899537;29;20024;-76
2021/11/10 01:43:22;;;;;;;38.25;23.75;;;;;;;;;;4921513;29;20092;-76
2021/11/10 01:45:48;;;;;;;30.67;22.98;;;;;;;;;;4906739;29;20072;-76
2021/11/10 01:50:51;;;;;;;35.42;23.02;;;;;;;;;;5153157;23;20129;-76
2021/11/10 01:53:17;;;;;;;38.25;24.88;;;;;;;;;;4929041;29;20048;-76
2021/11/10 01:56:10;;;;;;;39.70;24.77;;;;;;;;;;4941855;29;20415;-76
2021/11/10 01:58:41;;;;;;;34.00;23.92;;;;;;;;;;4925081;29;20112;-75
2021/11/10 02:01:25;;;;;;;34.30;23.55;;;;;;;;;;4925706;29;20029;-77
2021/11/10 02:06:26;;;;;;;41.40;26.33;;;;;;;;;;4967112;23;20044;-77
2021/11/10 02:08:53;;;;;;;51.83;35.72;;;;;;;;;;4944424;29;20023;-76
2021/11/10 02:19:06;;;;;;;67.78;46.90;;;;;;;;;;5186987;23;20079;-75
2021/11/10 02:21:35;;;;;;;62.78;40.05;;;;;;;;;;4925182;29;20091;-76
2021/11/10 02:24:01;;;;;;;71.35;41.35;;;;;;;;;;4926301;29;20012;-76
2021/11/10 02:29:03;;;;;;;59.85;37.45;;;;;;;;;;5449384;23;20041;-76
2021/11/10 02:31:34;;;;;;;53.90;32.90;;;;;;;;;;5171702;23;20036;-76
2021/11/10 02:44:23;;;;;;;58.15;34.35;;;;;;;;;;5334412;23;20048;-78
2021/11/10 02:46:51;;;;;;;58.70;35.22;;;;;;;;;;4926851;28;20035;-76
2021/11/10 02:51:56;;;;;;;56.70;37.60;;;;;;;;;;5605032;23;20151;-76
2021/11/10 02:54:22;;;;;;;72.07;43.00;;;;;;;;;;4927541;28;20044;-75
2021/11/10 02:56:49;;;;;;;78.85;47.03;;;;;;;;;;4923205;29;20036;-76
2021/11/10 02:59:15;;;;;;;75.15;45.63;;;;;;;;;;4926493;29;20028;-75
2021/11/10 03:02:17;;;;;;;88.43;50.17;;;128.60;2252.80;;;;;;4943836;28;20015;-76
2021/11/10 03:12:31;;;;;;;95.35;55.22;;;;;;;;;;4004827;23;20089;-75
2021/11/10 03:14:57;;;;;;;88.78;54.17;;;;;;;;;;4929416;29;20037;-76
2021/11/10 03:17:24;;;;;;;107.32;57.63;;;;;;;;;;4941163;29;20021;-76
2021/11/10 03:19:50;;;;;;;104.90;60.63;;;;;;;;;;4926267;29;20068;-77
2021/11/10 03:22:17;;;;;;;106.43;63.20;;;;;;;;;;5462084;23;20044;-76
2021/11/10 03:32:31;;;;;;;101.70;56.58;;;;;;;;;;4751323;23;20063;-76
2021/11/10 03:37:32;;;;;;;103.07;56.53;;;;;;;;;;4981052;23;20056;-76
2021/11/10 03:40:00;;;;;;;104.53;57.30;;;;;;;;;;4911538;29;20041;-76
2021/11/10 03:42:28;;;;;;;103.25;58.97;;;;;;;;;;4915606;29;20084;-76
2021/11/10 03:58:09;;;;;;;121.43;63.00;;;;;;;;;;4430620;27;20048;-76
2021/11/10 04:00:36;;;;;;;134.57;67.78;;;;;;;;;;4924280;28;20016;-76
2021/11/10 04:03:02;;;;;;;129.35;62.90;;;;;;;;;;4923320;28;20043;-76
2021/11/10 04:05:28;;;;;;;128.23;62.67;;;;;;;;;;4907734;28;20028;-79
2021/11/10 04:07:54;;;;;;;114.40;62.45;;;;;;;;;;4905265;29;20025;-76
2021/11/10 04:10:21;;;;;;;139.18;67.35;;;;;;;;;;4908040;28;20028;-77
2021/11/10 04:12:47;;;;;;;170.45;75.30;;;;;;;;;;4923895;28;20076;-76
2021/11/10 04:15:13;;;;;;;171.77;74.80;;;;;;;;;;4921449;28;20093;-76
2021/11/10 04:17:39;;;;;;;206.98;79.88;;;;;;;;;;4907586;28;20040;-76
2021/11/10 04:20:06;;;;;;;285.70;85.93;;;;;;;;;;4923770;28;20029;-75
2021/11/10 04:22:32;;;;;;;372.00;84.82;;;;;;;;;;4923195;28;20027;-76
2021/11/10 04:24:58;;;;;;;281.42;83.00;;;;;;;;;;4923646;28;20058;-75
2021/11/10 04:32:36;;;;;;;143.30;70.05;;;;;;;;;;5138067;23;20032;-76
2021/11/10 04:35:03;;;;;;;131.38;62.53;;;;;;;;;;4942774;29;20035;-76
2021/11/10 04:37:29;;;;;;;122.78;61.35;;;;;;;;;;4932160;29;20040;-75
2021/11/10 04:39:55;;;;;;;155.65;71.43;;;;;;;;;;4942432;28;20019;-77
2021/11/10 04:42:22;;;;;;;151.43;71.18;;;;;;;;;;4941667;28;20024;-75
2021/11/10 04:44:53;;;;;;;181.57;72.22;;;;;;;;;;4941176;29;20036;-75
2021/11/10 04:47:19;;;;;;;163.73;68.43;;;102.50;2227.20;;;;;;4938842;28;20034;-75
2021/11/10 04:49:45;;;;;;;129.35;58.20;;;102.40;2227.20;;;;;;5617202;23;20056;-76
2021/11/10 05:08:10;;;;;;;79.30;46.92;;;103.20;2227.20;;;;;;5788078;23;20044;-74
2021/11/10 05:10:38;;;;;;;78.78;46.72;;;103.10;2227.20;;;;;;4886342;29;20032;-76
2021/11/10 05:13:04;;;;;;;78.47;46.55;;;;;;;;;;4904476;29;20100;-73
2021/11/10 05:15:31;;;;;;;74.18;46.95;;;103.30;2227.20;;;;;;4901759;29;20056;-72
2021/11/10 05:17:56;;;;;;;80.10;47.80;;;103.10;2227.20;;;;;;4899937;29;20040;-76
2021/11/10 05:20:22;;;;;;;77.68;45.28;;;103.20;2227.20;;;;;;4905944;29;20079;-78
2021/11/10 05:22:48;;;;;;;69.20;42.38;;;103.10;2227.20;;;;;;4917436;29;20089;-76
2021/11/10 05:25:14;;;;;;;62.05;38.97;;;103.20;2227.20;;;;;;4918615;29;20103;-77
2021/11/10 05:27:40;;;;;;;65.80;40.08;;;103.20;2227.20;;;;;;4900333;29;20036;-78
2021/11/10 05:32:45;;;;;;;57.78;36.88;;;128.50;2252.80;;;;;;4874018;27;20049;-75
2021/11/10 05:35:12;;;;;;;56.17;33.17;;;128.00;2252.80;;;;;;4850213;29;20013;-77
2021/11/10 05:37:38;;;;;;;50.63;32.97;;;128.00;2252.80;;;;;;4840900;29;20065;-76
2021/11/10 05:40:12;;;;;;;47.42;32.47;;;128.10;2252.80;;;;;;4843065;29;20045;-76
2021/11/10 05:42:42;;;;;;;50.78;32.65;;;128.10;2252.80;;;;;;4857814;29;20034;-74
2021/11/10 05:45:08;;;;;;;49.75;33.30;;;128.10;2252.80;;;;;;4853283;29;20025;-74
2021/11/10 05:48:01;;;;;;;48.35;32.03;;;128.40;2252.80;;;;;;4852421;29;20033;-77
2021/11/10 05:50:53;;;;;;;46.60;33.10;;;128.20;2252.80;;;;;;4856294;29;20049;-78
2021/11/10 05:53:21;;;;;;;47.45;32.65;;;128.20;2252.80;;;;;;4847507;29;20030;-77
2021/11/10 05:56:32;;;;;;;47.80;33.03;;;128.20;2252.80;;;;;;4843232;29;20065;-78
2021/11/10 05:59:01;;;;;;;47.08;31.73;;;128.20;2252.80;;;;;;4799096;29;20047;-76
2021/11/10 06:01:27;;;;;;;51.28;35.38;;;128.20;2252.80;;;;;;4825469;29;20043;-77
2021/11/10 06:03:54;;;;;;;49.28;34.50;;;128.20;2252.80;;;;;;4827381;29;20039;-77
2021/11/10 06:06:22;;;;;;;46.63;31.83;;;128.20;2252.80;;;;;;4827695;29;20130;-76
2021/11/10 06:08:48;;;;;;;46.67;33.33;;;128.20;2252.80;;;;;;4840478;29;20026;-77
2021/11/10 06:11:14;;;;;;;47.83;30.83;;;128.20;2252.80;;;;;;4833038;29;20038;-77
2021/11/10 06:13:40;;;;;;;46.17;30.95;;;128.30;2252.80;;;;;;4825940;29;20022;-76
2021/11/10 06:16:07;;;;;;;67.28;40.50;;;128.40;2252.80;;;;;;4824027;29;20082;-77
2021/11/10 06:18:33;;;;;;;49.67;30.90;;;128.50;2252.80;;;;;;4832381;29;20050;-76
2021/11/10 06:21:00;;;;;;;35.97;25.48;;;128.70;2252.80;;;;;;4834369;29;20497;-77
2021/11/10 06:23:29;;;;;;;34.88;22.67;;;128.90;2252.80;;;;;;4834223;29;20019;-76
2021/11/10 06:25:55;;;;;;;34.95;23.13;;;128.90;2252.80;;;;;;4821004;29;20015;-77
2021/11/10 06:28:21;;;;;;;27.80;20.55;;;128.40;2252.80;;;;;;4819730;29;20056;-77
2021/11/10 06:30:47;;;;;;;28.08;20.05;;;153.70;2252.80;;;;;;4836837;29;20059;-77
2021/11/10 06:33:13;;;;;;;28.85;20.20;;;153.80;2252.80;;;;;;4826933;29;20054;-76
2021/11/10 06:35:39;;;;;;;38.20;27.40;;;153.80;2252.80;;;;;;4825838;29;20046;-77
2021/11/10 06:38:05;;;;;;;43.72;31.45;;;153.90;2252.80;;;;;;4832443;29;20044;-77
2021/11/10 06:40:31;;;;;;;30.33;20.65;;;153.90;2252.80;;;;;;4829277;29;20072;-77
2021/11/10 06:43:00;;;;;;;25.23;19.38;;;153.80;2252.80;;;;;;4836916;29;20030;-77
2021/11/10 06:45:26;;;;;;;24.67;17.70;;;153.80;2252.80;;;;;;4844302;29;20034;-77
2021/11/10 06:47:54;;;;;;;23.58;17.95;;;153.90;2252.80;;;;;;4832098;29;20035;-78
2021/11/10 06:50:25;;;;;;;22.15;16.67;;;;;;;;;;4837500;29;20109;-77
2021/11/10 06:53:15;;;;;;;18.25;14.50;;;;;;;;;;4839188;29;20042;-77
2021/11/10 06:55:44;;;;;;;19.17;14.18;;;;;;;;;;4792896;29;20031;-77
2021/11/10 06:58:10;;;;;;;19.88;13.68;;;;;;;;;;4815213;29;20039;-76
2021/11/10 07:00:36;;;;;;;16.00;12.60;;;;;;;;;;4811720;29;20035;-77
2021/11/10 07:03:05;;;;;;;14.73;12.60;;;;;;;;;;4810915;29;20058;-74
2021/11/10 07:05:31;;;;;;;15.80;12.65;;;;;;;;;;4812344;29;20045;-76
2021/11/10 07:07:57;;;;;;;13.70;11.90;;;;;;;;;;4816528;29;20048;-77
2021/11/10 07:10:23;;;;;;;19.85;14.85;;;;;;;;;;4816049;29;20037;-75
2021/11/10 07:12:49;;;;;;;14.90;11.80;;;;;;;;;;4820067;29;20043;-76
2021/11/10 07:15:16;;;;;;;17.88;13.13;;;;;;;;;;4839276;29;20441;-77
2021/11/10 07:17:42;;;;;;;14.75;12.38;;;;;;;;;;4859908;29;20081;-77
2021/11/10 07:20:18;;;;;;;15.95;11.77;;;;;;;;;;4863207;29;20160;-78
2021/11/10 07:23:02;;;;;;;16.58;11.60;;;;;;;;;;4856156;29;20059;-75
2021/11/10 07:25:52;;;;;;;13.30;11.18;;;;;;;;;;4862636;29;20085;-78
2021/11/10 07:28:30;;;;;;;15.77;12.77;;;;;;;;;;4818514;29;20030;-77
2021/11/10 07:31:08;;;;;;;16.35;11.93;;;;;;;;;;4828637;29;20074;-79
2021/11/10 07:34:22;;;;;;;20.05;14.10;;;;;;;;;;4809638;29;20045;-76
2021/11/10 07:42:17;;;;;;;15.38;12.70;;;;;;;;;;5053403;23;20056;-77
2021/11/10 07:44:43;;;;;;;23.38;17.88;;;;;;;;;;4909920;29;20028;-76
2021/11/10 07:47:30;;;;;;;19.20;13.80;;;;;;;;;;4916294;29;20032;-79
2021/11/10 07:50:00;;;;;;;18.20;12.35;;;;;;;;;;4911865;29;20068;-78
2021/11/10 07:52:31;;;;;;;19.25;13.85;;;;;;;;;;4904847;29;20029;-79
2021/11/10 07:55:15;;;;;;;17.67;13.18;;;;;;;;;;4897764;29;20041;-77
2021/11/10 07:57:45;;;;;;;15.32;11.85;;;;;;;;;;4915687;29;20063;-75
2021/11/10 08:00:16;;;;;;;14.43;10.73;;;;;;;;;;4918436;29;20436;-78
2021/11/10 08:02:45;;;;;;;14.73;11.25;;;;;;;;;;4932128;28;20044;-78
2021/11/10 08:05:18;;;;;;;14.57;12.20;;;;;;;;;;4909858;29;20075;-77
2021/11/10 08:07:49;;;;;;;15.48;12.65;;;;;;;;;;4884646;29;20079;-77
2021/11/10 08:10:29;;;;;;;14.60;11.68;;;;;;;;;;4908452;29;20031;-77
2021/11/10 08:13:04;;;;;;;14.40;11.73;;;;;;;;;;4930906;29;20036;-77
2021/11/10 08:16:03;;;;;;;17.98;12.63;;;;;;;;;;4931361;29;20089;-77
2021/11/10 08:18:48;;;;;;;15.60;11.90;;;;;;;;;;4859114;29;20035;-78
2021/11/10 08:21:45;;;;;;;13.50;11.40;;;;;;;;;;4900122;29;20025;-78
2021/11/10 08:24:38;;;;;;;12.65;10.20;;;;;;;;;;4895666;29;20033;-78
2021/11/10 08:27:35;;;;;;;14.18;10.77;;;;;;;;;;4844933;29;20083;-78
2021/11/10 08:30:34;;;;;;;13.70;11.05;;;;;;;;;;4842701;29;20062;-76
2021/11/10 08:33:07;;;;;;;17.70;10.90;;;;;;;;;;4843647;29;20073;-77
2021/11/10 08:36:07;;;;;;;14.23;11.60;;;;;;;;;;4841259;29;20042;-76
2021/11/10 08:41:29;;;;;;;13.80;10.02;;;;;;;;;;5126471;23;20052;-77
2021/11/10 08:43:57;;;;;;;14.70;10.07;;;;;;;;;;4932038;29;20052;-76
2021/11/10 08:46:24;;;;;;;12.75;10.90;;;;;;;;;;4920674;29;20048;-76
2021/11/10 08:48:58;;;;;;;12.98;10.25;;;;;;;;;;4939491;29;20052;-77
2021/11/10 08:51:27;;;;;;;13.63;9.85;;;;;;;;;;4877615;29;20035;-76
2021/11/10 08:53:54;;;;;;;12.52;9.77;;;;;;;;;;4907741;29;20075;-78
2021/11/10 08:56:20;;;;;;;12.23;9.70;;;;;;;;;;4917432;29;20103;-77
2021/11/10 08:58:48;;;;;;;12.95;9.93;;;;;;;;;;4936833;29;20029;-79
2021/11/10 09:04:01;;;;;;;13.75;9.55;;;;;;;;;;4923023;29;20043;-75
2021/11/10 09:06:27;;;;;;;12.90;9.52;;;;;;;;;;4938443;28;20031;-74
2021/11/10 09:11:58;;;;;;;8.57;7.63;;;;;;;;;;4927542;29;20036;-77
2021/11/10 09:14:24;;;;;;;9.35;7.70;;;;;;;;;;4863285;29;20044;-75
2021/11/10 09:16:50;;;;;;;9.70;6.95;;;;;;;;;;4906216;29;20036;-79
2021/11/10 09:19:16;;;;;;;8.30;6.15;;;;;;;;;;4923464;29;20008;-80
2021/11/10 09:21:43;;;;;;;9.40;7.55;;;;;;;;;;4931015;29;20042;-77
2021/11/10 09:24:10;;;;;;;9.50;6.63;;;;;;;;;;4938435;28;20035;-78
2021/11/10 09:26:37;;;;;;;11.05;6.82;;;;;;;;;;4908584;29;20016;-77
2021/11/10 09:29:36;;;;;;;8.77;6.57;;;;;;;;;;4920004;29;20036;-80
2021/11/10 09:32:33;;;;;;;14.30;9.30;;;;;;;;;;4929236;28;20037;-77
2021/11/10 09:35:35;;;;;;;9.02;6.50;;;;;;;;;;4872085;29;20048;-79
2021/11/10 09:38:05;;;;;;;9.65;6.28;;;;;;;;;;4905801;29;20103;-77
2021/11/10 09:40:40;;;;;;;10.50;6.35;;;;;;;;;;4929192;28;20023;-74
2021/11/10 09:45:57;;;;;;;11.43;7.43;;;;;;;;;;4957045;23;20045;-77
2021/11/10 09:48:25;;;;;;;11.10;7.00;;;;;;;;;;4921620;29;20012;-79
2021/11/10 09:50:52;;;;;;;7.10;5.15;;;;;;;;;;4900425;29;20032;-76
2021/11/10 09:53:19;;;;;;;9.32;6.00;;;;;;;;;;4917487;29;20089;-77
2021/11/10 09:55:45;;;;;;;8.27;5.57;;;;;;;;;;4920772;28;20073;-78
2021/11/10 09:58:11;;;;;;;7.53;5.63;;;;;;;;;;4904436;29;20036;-77
2021/11/10 10:00:37;;;;;;;6.75;5.20;;;;;;;;;;4905236;29;20021;-78
2021/11/10 10:03:04;;;;;;;6.13;5.43;;;;;;;;;;4920329;29;20076;-76
2021/11/10 10:05:32;;;;;;;8.40;5.63;;;;;;;;;;4916019;29;20047;-76
2021/11/10 10:08:00;;;;;;;10.15;5.15;;;;;;;;;;4890559;29;20025;-76
2021/11/10 10:10:27;;;;;;;6.70;5.03;;;;;;;;;;4901648;29;20036;-75
2021/11/10 10:12:54;;;;;;;6.85;4.93;;;;;;;;;;4903521;29;20483;-77
2021/11/10 10:15:22;;;;;;;8.75;5.57;;;;;;;;;;4904513;29;20076;-77
2021/11/10 10:17:56;;;;;;;6.35;4.97;;;;;;;;;;4888617;29;20025;-76
2021/11/10 10:20:23;;;;;;;7.32;5.82;;;;;;;;;;4904697;29;20017;-76
2021/11/10 10:22:50;;;;;;;7.35;5.40;;;;;;;;;;4907700;29;20431;-77
2021/11/10 10:25:16;;;;;;;9.18;5.50;;;;;;;;;;4905570;29;20024;-77
2021/11/10 10:27:53;;;;;;;7.40;5.60;;;;;;;;;;4904450;29;20013;-77
2021/11/10 10:30:27;;;;;;;6.53;5.70;;;;;;;;;;4903682;29;20051;-78
2021/11/10 10:32:55;;;;;;;8.35;6.20;;;;;;;;;;4903396;29;20364;-78
2021/11/10 10:35:30;;;;;;;9.75;5.72;;;;;;;;;;4895761;29;20029;-78
2021/11/10 10:37:56;;;;;;;7.93;5.20;;;;;;;;;;4900554;29;20048;-77
2021/11/10 10:40:22;;;;;;;9.65;6.90;;;;;;;;;;4914726;29;20032;-76
2021/11/10 10:42:49;;;;;;;9.80;6.70;;;;;;;;;;4909024;29;20059;-78
2021/11/10 10:45:27;;;;;;;11.68;6.40;;;;;;;;;;4905039;29;20052;-77
2021/11/10 11:09:26;;;;;;;7.75;6.13;;;;;;;;;;6291942;22;1539719;-77
2021/11/10 11:12:01;;;;;;;11.40;6.65;;;;;;;;;;6293057;22;20055;-77
2021/11/10 11:14:45;;;;;;;7.97;5.80;;;;;;;;;;6294182;22;19995;-79
2021/11/10 11:17:25;;;;;;;8.48;5.85;;;;;;;;;;6301384;22;20026;-79
2021/11/10 11:19:59;;;;;;;7.90;6.22;;;;;;;;;;6296269;22;20011;-77
2021/11/10 11:22:31;;;;;;;8.43;6.55;;;;;;;;;;6306120;22;20029;-78
2021/11/10 11:25:08;;;;;;;8.25;6.72;;;;;;;;;;6309655;22;19991;-80
2021/11/10 11:28:09;;;;;;;8.55;6.55;;;;;;;;;;6309961;22;20080;-76
2021/11/10 11:30:37;;;;;;;9.18;7.00;;;;;;;;;;6232999;23;20016;-75
2021/11/10 11:33:05;;;;;;;7.63;5.57;;;;;;;;;;6243255;23;20008;-75
2021/11/10 11:35:41;;;;;;;7.68;6.22;;;;;;;;;;6217150;23;20067;-76
2021/11/10 11:38:28;;;;;;;8.82;6.63;;;;;;;;;;6201049;23;20012;-76
2021/11/10 11:40:56;;;;;;;8.27;6.35;;;;;;;;;;6198954;23;20009;-76
2021/11/10 11:43:26;;;;;;;8.43;7.05;;;;;;;;;;6199466;23;20045;-77
2021/11/10 11:45:55;;;;;;;11.43;8.15;;;;;;;;;;6171848;23;20308;-77
2021/11/10 11:48:23;;;;;;;12.38;8.25;;;;;;;;;;6201821;23;20005;-77
2021/11/10 11:50:50;;;;;;;13.02;8.15;;;;;;;;;;6199299;23;20064;-76
2021/11/10 11:53:26;;;;;;;11.20;7.80;;;;;;;;;;6200907;23;20004;-77
2021/11/10 11:56:03;;;;;;;9.90;7.40;;;;;;;;;;6178584;23;20005;-77
2021/11/10 11:58:48;;;;;;;17.77;7.68;;;;;;;;;;6184942;23;20352;-75
2021/11/10 12:01:17;;;;;;;9.50;7.28;;;;;;;;;;6185187;23;19997;-75
2021/11/10 12:04:04;;;;;;;10.93;7.90;;;;;;;;;;6180110;23;20039;-75
2021/11/10 12:06:31;;;;;;;8.88;7.30;;;;;;;;;;6231403;23;20039;-75
2021/11/10 12:08:58;;;;;;;8.38;7.00;;;;;;;;;;6273984;22;20004;-76
2021/11/10 12:11:37;;;;;;;10.10;8.43;;;;;;;;;;6300349;22;20007;-76
2021/11/10 12:19:35;;;;;;;14.25;10.05;;;;;;;;;;6322797;22;20068;-78
2021/11/10 12:22:24;;;;;;;10.75;7.78;;;;;;;;;;6318787;22;20026;-78
2021/11/10 12:24:51;;;;;;;11.63;9.07;;;;;;;;;;6254369;23;20027;-76
2021/11/10 12:27:23;;;;;;;8.52;7.10;;;;;;;;;;6250260;23;20028;-75
2021/11/10 12:29:57;;;;;;;12.00;7.45;;;;;;;;;;6256935;23;20009;-77
2021/11/10 12:32:42;;;;;;;7.53;6.68;;;;;;;;;;6230222;23;20019;-77
2021/11/10 12:35:10;;;;;;;13.60;8.73;;;;;;;;;;6254190;23;20474;-77
2021/11/10 12:37:38;;;;;;;9.82;7.15;;;;;;;;;;6221195;23;20013;-78
2021/11/10 12:40:16;;;;;;;10.73;8.25;;;;;;;;;;6229615;23;20064;-77
2021/11/10 12:42:54;;;;;;;12.18;8.52;;;;;;;;;;6237453;23;20039;-74
2021/11/10 12:45:26;;;;;;;13.98;9.52;;;;;;;;;;6235996;23;20088;-78
2021/11/10 12:47:54;;;;;;;11.50;8.70;;;;;;;;;;6239706;23;20073;-79
2021/11/10 12:50:22;;;;;;;15.70;10.85;;;;;;;;;;6235652;22;19997;-77
2021/11/10 12:52:51;;;;;;;12.07;8.65;;;;;;;;;;6217112;23;20008;-77
2021/11/10 12:55:19;;;;;;;11.27;7.80;;;;;;;;;;6222411;23;20000;-77
2021/11/10 12:57:45;;;;;;;12.38;9.50;;;;;;;;;;6222936;23;20012;-78
2021/11/10 13:00:13;;;;;;;9.18;7.85;;;;;;;;;;6224400;23;20092;-78
2021/11/10 13:02:45;;;;;;;10.13;7.72;;;;;;;;;;6279818;22;20043;-79
2021/11/10 13:05:13;;;;;;;7.95;6.72;;;;;;;;;;6287526;22;19996;-78
2021/11/10 13:07:49;;;;;;;13.35;9.90;;;;;;;;;;6284010;22;20121;-77
2021/11/10 13:10:17;;;;;;;9.63;7.38;;;;;;;;;;6288188;22;20329;-78
2021/11/10 13:12:44;;;;;;;11.68;9.07;;;;;;;;;;6284616;22;20011;-77
2021/11/10 13:15:13;;;;;;;10.82;8.48;;;;;;;;;;6283084;22;20004;-75
2021/11/10 13:17:39;;;;;;;8.65;7.47;;;;;;;;;;6285042;22;20023;-77
2021/11/10 13:20:12;;;;;;;14.10;9.48;;;;;;;;;;6282182;22;20000;-74
2021/11/10 13:22:46;;;;;;;9.38;6.93;;;;;;;;;;6279342;22;20004;-76
2021/11/10 13:25:14;;;;;;;10.27;7.10;;;;;;;;;;6282981;22;19995;-77
2021/11/10 13:28:06;;;;;;;14.18;8.05;;;;;;;;;;6282625;22;20007;-77
2021/11/10 13:30:41;;;;;;;15.15;8.98;;;;;;;;;;6278256;22;20015;-77
2021/11/10 13:33:34;;;;;;;8.63;6.60;;;;;;;;;;6280977;22;20011;-76
2021/11/10 13:36:06;;;;;;;10.10;7.28;;;;;;;;;;6280100;22;20011;-76
2021/11/10 13:38:38;;;;;;;9.48;7.47;;;;;;;;;;6279784;22;20074;-76
2021/11/10 13:41:16;;;;;;;11.35;7.88;;;;;;;;;;6282319;22;20006;-77
2021/11/10 13:43:51;;;;;;;25.95;15.50;;;;;;;;;;6282139;22;20003;-77
2021/11/10 13:46:18;;;;;;;27.35;17.08;;;;;;;;;;6291276;22;20307;-76
2021/11/10 13:48:44;;;;;;;13.95;10.30;;;;;;;;;;6287468;22;20003;-77
2021/11/10 13:51:10;;;;;;;33.28;17.98;;;;;;;;;;6287700;22;20006;-77
2021/11/10 13:53:36;;;;;;;12.98;8.65;;;;;;;;;;6286626;22;19995;-77
2021/11/10 13:56:03;;;;;;;11.55;8.70;;;;;;;;;;6285824;22;20004;-76
2021/11/10 13:58:31;;;;;;;11.07;8.80;;;;;;;;;;6289914;22;20004;-78
2021/11/10 14:00:59;;;;;;;9.30;7.13;;;;;;;;;;6288715;22;20004;-78
2021/11/10 14:03:27;;;;;;;11.85;7.93;;;;;;;;;;6289401;22;20010;-76
2021/11/10 14:05:54;;;;;;;9.43;7.60;;;;;;;;;;6289690;22;20010;-78
2021/11/10 14:08:20;;;;;;;12.43;9.75;;;;;;;;;;6288641;22;20494;-79
2021/11/10 14:10:47;;;;;;;11.50;6.70;;;;;;;;;;6288051;22;20012;-77
2021/11/10 14:13:13;;;;;;;10.18;7.10;;;;;;;;;;6290819;22;19999;-77
2021/11/10 14:15:40;;;;;;;10.30;7.70;;;;;;;;;;6289544;22;20008;-76
2021/11/10 14:18:08;;;;;;;9.95;7.88;;;;;;;;;;6287192;22;20398;-79
2021/11/10 14:20:37;;;;;;;9.93;8.02;;;;;;;;;;6290479;22;20010;-75
2021/11/10 14:23:22;;;;;;;8.60;7.38;;;;;;;;;;6282393;22;20019;-76
2021/11/10 14:26:02;;;;;;;9.18;7.40;;;;;;;;;;6282411;22;20003;-75
2021/11/10 14:28:32;;;;;;;10.98;7.93;;;;;;;;;;6284964;22;20011;-77
2021/11/10 14:31:09;;;;;;;11.90;9.45;;;;;;;;;;6289456;22;20011;-76
2021/11/10 14:33:46;;;;;;;8.63;6.95;;;;;;;;;;6297332;22;20012;-76
2021/11/10 14:36:14;;;;;;;10.90;7.75;;;;;;;;;;6295498;22;20121;-76
2021/11/10 14:38:41;;;;;;;10.43;7.75;;;;;;;;;;6295975;22;20008;-76
2021/11/10 14:41:13;;;;;;;10.18;8.55;;;;;;;;;;6298505;22;19995;-75
2021/11/10 14:43:41;;;;;;;11.50;7.97;;;;;;;;;;6298366;22;20019;-75
2021/11/10 14:46:19;;;;;;;9.93;8.48;;;;;;;;;;6290229;22;20007;-75
2021/11/10 14:48:47;;;;;;;10.68;8.48;;;;;;;;;;6293195;22;20004;-77
2021/11/10 14:51:17;;;;;;;10.57;8.20;;;;;;;;;;6306368;22;20022;-77
2021/11/10 14:53:58;;;;;;;10.52;8.88;;;;;;;;;;6321720;22;20003;-76
2021/11/10 14:56:26;;;;;;;11.00;8.63;;;;;;;;;;6320661;22;20034;-76
2021/11/10 14:59:07;;;;;;;10.35;8.40;;;;;;;;;;6321527;22;20429;-77
2021/11/10 15:01:40;;;;;;;13.60;9.70;;;;;;;;;;6321451;22;20007;-76
2021/11/10 15:04:20;;;;;;;13.52;10.90;;;;;;;;;;6315839;22;20030;-76
2021/11/10 15:06:46;;;;;;;11.73;9.50;;;;;;;;;;6316058;22;20011;-77
2021/11/10 15:09:13;;;;;;;11.32;9.10;;;;;;;;;;6317749;22;20003;-77
2021/11/10 15:11:47;;;;;;;15.77;10.05;;;;;;;;;;6317527;22;20041;-77
2021/11/10 15:14:30;;;;;;;15.95;12.27;;;;;;;;;;6320412;22;20002;-77
2021/11/10 15:17:01;;;;;;;10.65;9.23;;;;;;;;;;6316991;22;20014;-77
2021/11/10 15:19:28;;;;;;;13.55;8.93;;;;;;;;;;6322309;22;19995;-77
2021/11/10 15:21:55;;;;;;;14.50;11.57;;;;;;;;;;6322347;22;20018;-77
2021/11/10 15:24:27;;;;;;;14.88;12.10;;;;;;;;;;6318063;22;20321;-77
2021/11/10 15:26:54;;;;;;;17.70;12.65;;;;;;;;;;6322677;22;20003;-77
2021/11/10 15:29:20;;;;;;;13.20;11.18;;;;;;;;;;6326077;22;20003;-77
2021/11/10 15:31:46;;;;;;;12.23;9.93;;;;;;;;;;6322818;22;20003;-77
2021/11/10 15:34:12;;;;;;;12.77;10.40;;;;;;;;;;6323500;22;20003;-78
2021/11/10 15:36:41;;;;;;;14.27;11.02;;;;;;;;;;6320015;22;20038;-77
2021/11/10 15:39:08;;;;;;;11.57;9.60;;;;;;;;;;6322122;22;20014;-77
2021/11/10 15:41:34;;;;;;;13.65;9.80;;;;;;;;;;6324539;22;20010;-78
2021/11/10 15:44:00;;;;;;;12.70;10.48;;;;;;;;;;6324300;22;19999;-76
2021/11/10 15:46:28;;;;;;;14.23;10.95;;;;;;;;;;6322481;22;20009;-77
2021/11/10 15:48:54;;;;;;;14.20;11.38;;;;;;;;;;6323973;22;20003;-77
2021/11/10 15:51:20;;;;;;;13.73;10.82;;;;;;;;;;6325287;22;20054;-78
2021/11/10 15:53:46;;;;;;;12.80;10.38;;;;;;;;;;6326650;22;20000;-76
2021/11/10 15:56:12;;;;;;;14.27;11.18;;;;;;;;;;6325989;22;20052;-77
2021/11/10 15:58:38;;;;;;;15.43;12.35;;;;;;;;;;6324542;22;20449;-77
2021/11/10 16:01:07;;;;;;;13.00;10.55;;;;;;;;;;6326054;22;20003;-77
2021/11/10 16:03:44;;;;;;;12.65;10.23;;;;;;;;;;6327692;22;20017;-77
2021/11/10 16:06:11;;;;;;;13.68;10.80;;;;;;;;;;6326398;22;20006;-76
2021/11/10 16:08:40;;;;;;;14.15;10.70;;;;;;;;;;6325597;22;20171;-77
2021/11/10 16:11:08;;;;;;;13.25;10.52;;;;;;;;;;6325376;22;20015;-77
2021/11/10 16:13:34;;;;;;;13.15;10.38;;;;;;;;;;6325441;22;20063;-77
2021/11/10 16:16:00;;;;;;;14.48;10.80;;;;;;;;;;6326567;22;20014;-76
2021/11/10 16:18:27;;;;;;;12.18;10.30;;;;;;;;;;6321018;22;20006;-76
2021/11/10 16:20:56;;;;;;;14.60;11.23;;;;;;;;;;6323026;22;20059;-77
2021/11/10 16:23:28;;;;;;;14.82;10.57;;;;;;;;;;6324289;22;20003;-77
2021/11/10 16:25:58;;;;;;;14.40;11.30;;;;;;;;;;6322153;22;20003;-77
2021/11/10 16:28:31;;;;;;;12.50;10.60;;;;;;;;;;6324124;22;20052;-77
2021/11/10 16:31:58;;;;;;;12.73;11.13;;;;;;;;;;6317704;22;20086;-76
2021/11/10 16:33:44;;;;;;;14.25;11.20;;;;;;;;;;6297953;22;20023;-77
2021/11/10 16:36:14;;;;;;;16.15;11.32;;;;;;;;;;6325939;22;20005;-76
2021/11/10 16:38:41;;;;;;;13.27;11.45;;;;;;;;;;6328410;22;19999;-78
2021/11/10 16:41:07;;;;;;;18.80;12.75;;;;;;;;;;6322222;22;19999;-76
2021/11/10 16:43:34;;;;;;;20.00;14.63;;;;;;;;;;6322335;22;20010;-78
2021/11/10 16:46:05;;;;;;;13.52;10.88;;;;;;;;;;6326227;22;20002;-77
2021/11/10 16:48:32;;;;;;;16.08;11.48;;;;;;;;;;6295727;22;20011;-77
2021/11/10 16:51:00;;;;;;;13.85;11.48;;;;;;;;;;6318877;22;20778;-77
2021/11/10 16:53:26;;;;;;;18.52;12.55;;;;;;;;;;6319207;22;20003;-77
2021/11/10 16:55:54;;;;;;;14.40;11.90;;;;;;;;;;6323697;22;20004;-77
2021/11/10 16:58:21;;;;;;;16.55;13.45;;;;;;;;;;6328280;22;19995;-78
2021/11/10 17:00:51;;;;;;;20.67;14.02;;;;;;;;;;6326406;22;19999;-77
2021/11/10 17:03:17;;;;;;;17.00;12.52;;;;;;;;;;6320750;22;20056;-78